createdAt,value
2022-11-29T00:00:09.727Z,7.39
2022-11-29T00:01:02.522Z,7.40
2022-11-29T00:01:49.245Z,7.40
2022-11-29T00:02:35.847Z,7.39
2022-11-29T00:03:22.582Z,7.40
2022-11-29T00:04:10.184Z,7.37
2022-11-29T00:04:56.761Z,7.36
2022-11-29T00:05:44.100Z,7.36
2022-11-29T00:06:33.131Z,7.36
2022-11-29T00:07:20.990Z,7.38
2022-11-29T00:08:07.846Z,7.37
2022-11-29T00:08:57.399Z,7.38
2022-11-29T00:09:44.411Z,7.35
2022-11-29T00:10:31.110Z,7.34
2022-11-29T00:11:41.696Z,7.36
2022-11-29T00:12:28.243Z,7.38
2022-11-29T00:13:15.037Z,7.37
2022-11-29T00:14:01.829Z,7.37
2022-11-29T00:14:48.962Z,7.39
2022-11-29T00:15:37.174Z,7.41
2022-11-29T00:16:23.881Z,7.41
2022-11-29T00:17:10.719Z,7.41
2022-11-29T00:17:57.371Z,7.43
2022-11-29T00:18:43.982Z,7.43
2022-11-29T00:19:32.671Z,7.43
2022-11-29T00:20:19.487Z,7.45
2022-11-29T00:21:07.805Z,7.44
2022-11-29T00:21:54.440Z,7.45
2022-11-29T00:22:41.261Z,7.45
2022-11-29T00:23:30.261Z,7.47
2022-11-29T00:24:17.695Z,7.49
2022-11-29T00:25:05.830Z,7.48
2022-11-29T00:25:52.912Z,7.47
2022-11-29T00:26:39.799Z,7.48
2022-11-29T00:27:26.416Z,7.46
2022-11-29T00:28:13.172Z,7.46
2022-11-29T00:28:59.914Z,7.44
2022-11-29T00:29:46.561Z,7.43
2022-11-29T00:30:34.323Z,7.43
2022-11-29T00:31:27.499Z,7.41
2022-11-29T00:32:14.142Z,7.44
2022-11-29T00:33:00.919Z,7.46
2022-11-29T00:33:48.348Z,7.48
2022-11-29T00:34:35.192Z,7.49
2022-11-29T00:35:22.062Z,7.50
2022-11-29T00:36:09.149Z,7.51
2022-11-29T00:36:56.056Z,7.54
2022-11-29T00:37:42.657Z,7.55
2022-11-29T00:38:29.643Z,7.53
2022-11-29T00:39:16.807Z,7.52
2022-11-29T00:40:05.602Z,7.51
2022-11-29T00:40:52.695Z,7.52
2022-11-29T00:41:40.302Z,7.55
2022-11-29T00:42:27.233Z,7.55
2022-11-29T00:43:13.900Z,7.58
2022-11-29T00:44:00.615Z,7.58
2022-11-29T00:44:48.301Z,7.60
2022-11-29T00:45:35.111Z,7.58
2022-11-29T00:46:22.558Z,7.60
2022-11-29T00:47:09.614Z,7.60
2022-11-29T00:47:56.347Z,7.60
2022-11-29T00:48:43.153Z,7.60
2022-11-29T00:49:29.932Z,7.60
2022-11-29T00:50:16.847Z,7.58
2022-11-29T00:51:06.141Z,7.53
2022-11-29T00:51:53.112Z,7.52
2022-11-29T00:52:39.755Z,7.50
2022-11-29T00:53:26.535Z,7.48
2022-11-29T00:54:13.217Z,7.49
2022-11-29T00:55:00.105Z,7.51
2022-11-29T00:55:51.923Z,7.52
2022-11-29T00:56:39.089Z,7.51
2022-11-29T00:57:25.819Z,7.53
2022-11-29T00:58:12.683Z,7.54
2022-11-29T00:58:59.581Z,7.56
2022-11-29T00:59:46.206Z,7.59
2022-11-29T01:00:33.187Z,7.59
2022-11-29T01:01:19.863Z,7.59
2022-11-29T01:02:07.458Z,7.55
2022-11-29T01:02:54.303Z,7.53
2022-11-29T01:03:41.037Z,7.53
2022-11-29T01:04:28.823Z,7.54
2022-11-29T01:05:15.600Z,7.53
2022-11-29T01:06:06.838Z,7.53
2022-11-29T01:06:56.196Z,7.57
2022-11-29T01:07:46.008Z,7.54
2022-11-29T01:08:33.722Z,7.55
2022-11-29T01:09:20.996Z,7.56
2022-11-29T01:10:08.866Z,7.57
2022-11-29T01:11:12.039Z,7.58
2022-11-29T01:12:04.046Z,7.61
2022-11-29T01:12:54.633Z,7.62
2022-11-29T01:13:42.483Z,7.60
2022-11-29T01:14:29.223Z,7.60
2022-11-29T01:15:16.050Z,7.60
2022-11-29T01:16:04.912Z,7.59
2022-11-29T01:16:51.684Z,7.60
2022-11-29T01:17:40.796Z,7.59
2022-11-29T01:18:28.118Z,7.61
2022-11-29T01:19:14.882Z,7.60
2022-11-29T01:20:02.368Z,7.58
2022-11-29T01:21:24.732Z,7.60
2022-11-29T01:22:13.759Z,7.58
2022-11-29T01:23:03.106Z,7.57
2022-11-29T01:23:51.657Z,7.58
2022-11-29T01:24:38.712Z,7.58
2022-11-29T01:25:26.177Z,7.55
2022-11-29T01:26:17.117Z,7.57
2022-11-29T01:27:03.999Z,7.59
2022-11-29T01:27:50.767Z,7.57
2022-11-29T01:28:40.795Z,7.58
2022-11-29T01:29:27.641Z,7.60
2022-11-29T01:30:14.879Z,7.59
2022-11-29T01:31:12.513Z,7.57
2022-11-29T01:32:00.390Z,7.57
2022-11-29T01:32:47.194Z,7.55
2022-11-29T01:33:35.849Z,7.55
2022-11-29T01:34:26.054Z,7.58
2022-11-29T01:35:12.753Z,7.56
2022-11-29T01:35:59.704Z,7.56
2022-11-29T01:36:46.441Z,7.56
2022-11-29T01:37:33.245Z,7.55
2022-11-29T01:38:21.572Z,7.56
2022-11-29T01:39:10.271Z,7.53
2022-11-29T01:40:00.931Z,7.51
2022-11-29T01:41:05.778Z,7.50
2022-11-29T01:41:52.394Z,7.51
2022-11-29T01:42:39.091Z,7.51
2022-11-29T01:43:26.047Z,7.52
2022-11-29T01:44:12.594Z,7.54
2022-11-29T01:45:18.957Z,7.53
2022-11-29T01:46:06.075Z,7.55
2022-11-29T01:46:54.348Z,7.55
2022-11-29T01:47:45.478Z,7.58
2022-11-29T01:48:33.698Z,7.58
2022-11-29T01:49:32.914Z,7.59
2022-11-29T01:50:21.096Z,7.60
2022-11-29T01:51:07.846Z,7.59
2022-11-29T01:52:01.124Z,7.60
2022-11-29T01:52:48.287Z,7.59
2022-11-29T01:53:34.943Z,7.60
2022-11-29T01:54:22.656Z,7.58
2022-11-29T01:55:10.110Z,7.61
2022-11-29T01:56:03.974Z,7.58
2022-11-29T01:56:53.086Z,7.58
2022-11-29T01:57:43.239Z,7.58
2022-11-29T01:58:30.406Z,7.58
2022-11-29T01:59:21.806Z,7.57
2022-11-29T02:00:15.146Z,7.59
2022-11-29T02:01:11.859Z,7.60
2022-11-29T02:02:12.752Z,7.60
2022-11-29T02:03:10.191Z,7.60
2022-11-29T02:03:56.903Z,7.59
2022-11-29T02:04:46.910Z,7.62
2022-11-29T02:05:33.989Z,7.61
2022-11-29T02:06:20.873Z,7.60
2022-11-29T02:07:08.105Z,7.61
2022-11-29T02:07:59.244Z,7.60
2022-11-29T02:08:46.038Z,7.61
2022-11-29T02:09:32.767Z,7.62
2022-11-29T02:10:20.231Z,7.64
2022-11-29T02:11:45.839Z,7.63
2022-11-29T02:12:32.444Z,7.62
2022-11-29T02:13:45.621Z,7.63
2022-11-29T02:14:56.399Z,7.63
2022-11-29T02:15:56.528Z,7.65
2022-11-29T02:17:04.049Z,7.66
2022-11-29T02:18:05.428Z,7.68
2022-11-29T02:19:39.686Z,7.69
2022-11-29T02:20:44.948Z,7.67
2022-11-29T02:21:45.692Z,7.70
2022-11-29T02:22:44.373Z,7.68
2022-11-29T02:23:58.464Z,7.69
2022-11-29T02:25:06.501Z,7.69
2022-11-29T02:26:37.929Z,7.70
2022-11-29T02:28:12.643Z,7.72
2022-11-29T02:29:24.285Z,7.73
2022-11-29T02:30:42.899Z,7.73
2022-11-29T02:31:57.427Z,7.74
2022-11-29T02:33:16.024Z,7.74
2022-11-29T02:34:08.628Z,7.74
2022-11-29T02:35:14.588Z,7.74
2022-11-29T02:36:15.895Z,7.73
2022-11-29T02:37:40.773Z,7.72
2022-11-29T02:38:48.692Z,7.72
2022-11-29T02:40:10.703Z,7.69
2022-11-29T02:41:11.264Z,7.69
2022-11-29T02:42:31.373Z,7.69
2022-11-29T02:43:35.879Z,7.70
2022-11-29T02:44:41.672Z,7.67
2022-11-29T02:45:40.333Z,7.67
2022-11-29T02:46:45.575Z,7.68
2022-11-29T02:47:48.656Z,7.68
2022-11-29T02:48:53.635Z,7.67
2022-11-29T02:50:00.780Z,7.68
2022-11-29T02:50:56.083Z,7.69
2022-11-29T02:52:26.055Z,7.70
2022-11-29T02:53:22.872Z,7.70
2022-11-29T02:54:25.714Z,7.72
2022-11-29T02:55:44.888Z,7.74
2022-11-29T02:56:53.552Z,7.75
2022-11-29T02:58:01.501Z,7.77
2022-11-29T02:59:06.596Z,7.73
2022-11-29T03:00:33.151Z,7.68
2022-11-29T03:01:37.273Z,7.72
2022-11-29T03:02:48.425Z,7.66
2022-11-29T03:04:15.581Z,7.64
2022-11-29T03:05:35.676Z,7.62
2022-11-29T03:06:36.554Z,7.64
2022-11-29T03:07:45.119Z,7.67
2022-11-29T03:08:52.993Z,7.68
2022-11-29T03:09:55.635Z,7.69
2022-11-29T03:10:51.550Z,7.73
2022-11-29T03:11:56.842Z,7.70
2022-11-29T03:12:51.876Z,7.69
2022-11-29T03:14:20.278Z,7.72
2022-11-29T03:15:18.520Z,7.70
2022-11-29T03:16:42.872Z,7.70
2022-11-29T03:17:52.993Z,7.70
2022-11-29T03:19:04.146Z,7.70
2022-11-29T03:20:21.917Z,7.71
2022-11-29T03:21:16.984Z,7.70
2022-11-29T03:22:17.307Z,7.70
2022-11-29T03:23:36.148Z,7.68
2022-11-29T03:24:35.568Z,7.69
2022-11-29T03:25:31.414Z,7.69
2022-11-29T03:26:35.416Z,7.67
2022-11-29T03:27:50.619Z,7.70
2022-11-29T03:28:51.209Z,7.70
2022-11-29T03:29:50.423Z,7.70
2022-11-29T03:30:44.085Z,7.69
2022-11-29T03:31:43.538Z,7.71
2022-11-29T03:32:54.456Z,7.70
2022-11-29T03:34:18.097Z,7.71
2022-11-29T03:35:24.634Z,7.74
2022-11-29T03:36:36.061Z,7.76
2022-11-29T03:37:50.289Z,7.75
2022-11-29T03:38:44.998Z,7.75
2022-11-29T03:39:43.275Z,7.77
2022-11-29T03:40:45.564Z,7.75
2022-11-29T03:41:48.898Z,7.71
2022-11-29T03:42:41.631Z,7.70
2022-11-29T03:43:45.700Z,7.72
2022-11-29T03:44:41.774Z,7.71
2022-11-29T03:45:39.512Z,7.67
2022-11-29T03:46:56.760Z,7.69
2022-11-29T03:47:59.984Z,7.72
2022-11-29T03:48:54.460Z,7.74
2022-11-29T03:49:52.530Z,7.76
2022-11-29T03:50:44.980Z,7.77
2022-11-29T03:51:53.103Z,7.78
2022-11-29T03:52:42.206Z,7.80
2022-11-29T03:53:37.786Z,7.80
2022-11-29T03:54:56.986Z,7.79
2022-11-29T03:56:04.957Z,7.80
2022-11-29T03:56:51.755Z,7.82
2022-11-29T03:58:02.049Z,7.82
2022-11-29T03:59:05.136Z,7.80
2022-11-29T04:00:04.108Z,7.86
2022-11-29T04:01:37.425Z,7.87
2022-11-29T04:02:58.492Z,7.87
2022-11-29T04:04:15.581Z,7.88
2022-11-29T04:05:17.037Z,7.86
2022-11-29T04:06:20.470Z,7.90
2022-11-29T04:07:32.973Z,7.88
2022-11-29T04:08:43.644Z,7.87
2022-11-29T04:09:41.391Z,7.89
2022-11-29T04:10:55.049Z,7.90
2022-11-29T04:12:18.784Z,7.87
2022-11-29T04:13:43.068Z,7.85
2022-11-29T04:14:44.807Z,7.87
2022-11-29T04:15:46.886Z,7.85
2022-11-29T04:16:45.515Z,7.84
2022-11-29T04:17:35.133Z,7.85
2022-11-29T04:18:52.296Z,7.85
2022-11-29T04:19:59.097Z,7.88
2022-11-29T04:20:51.356Z,7.87
2022-11-29T04:21:56.206Z,7.87
2022-11-29T04:22:56.416Z,7.88
2022-11-29T04:24:21.258Z,7.87
2022-11-29T04:25:41.993Z,7.89
2022-11-29T04:27:05.418Z,7.88
2022-11-29T04:27:52.000Z,7.85
2022-11-29T04:29:12.179Z,7.82
2022-11-29T04:30:19.066Z,7.82
2022-11-29T04:31:52.671Z,7.79
2022-11-29T04:32:57.735Z,7.78
2022-11-29T04:34:17.604Z,7.76
2022-11-29T04:35:31.955Z,7.77
2022-11-29T04:36:40.171Z,7.77
2022-11-29T04:37:44.771Z,7.74
2022-11-29T04:39:04.367Z,7.68
2022-11-29T04:40:24.813Z,7.68
2022-11-29T04:41:44.403Z,7.67
2022-11-29T04:42:50.144Z,7.67
2022-11-29T04:44:07.543Z,7.66
2022-11-29T04:45:15.382Z,7.65
2022-11-29T04:46:23.672Z,7.63
2022-11-29T04:47:15.870Z,7.64
2022-11-29T04:48:21.311Z,7.62
2022-11-29T04:49:26.901Z,7.62
2022-11-29T04:50:42.882Z,7.63
2022-11-29T04:51:45.081Z,7.61
2022-11-29T04:52:56.464Z,7.61
2022-11-29T04:54:24.126Z,7.54
2022-11-29T04:55:43.879Z,7.54
2022-11-29T04:56:44.219Z,7.53
2022-11-29T04:57:40.124Z,7.56
2022-11-29T04:58:55.234Z,7.57
2022-11-29T05:00:02.675Z,7.57
2022-11-29T05:01:04.281Z,7.58
2022-11-29T05:02:50.804Z,7.59
2022-11-29T05:03:57.250Z,7.59
2022-11-29T05:05:02.047Z,7.60
2022-11-29T05:06:09.584Z,7.60
2022-11-29T05:07:12.430Z,7.62
2022-11-29T05:08:31.353Z,7.63
2022-11-29T05:09:46.587Z,7.66
2022-11-29T05:10:51.418Z,7.62
2022-11-29T05:12:01.999Z,7.59
2022-11-29T05:13:05.225Z,7.58
2022-11-29T05:14:06.004Z,7.58
2022-11-29T05:15:40.992Z,7.64
2022-11-29T05:16:53.490Z,7.64
2022-11-29T05:18:35.780Z,7.58
2022-11-29T05:19:50.436Z,7.55
2022-11-29T05:21:08.826Z,7.54
2022-11-29T05:22:01.022Z,7.53
2022-11-29T05:23:22.420Z,7.52
2022-11-29T05:24:47.549Z,7.51
2022-11-29T05:25:37.663Z,7.50
2022-11-29T05:26:45.891Z,7.52
2022-11-29T05:27:47.158Z,7.51
2022-11-29T05:28:40.283Z,7.52
2022-11-29T05:29:57.445Z,7.50
2022-11-29T05:31:12.412Z,7.52
2022-11-29T05:32:34.735Z,7.49
2022-11-29T05:33:52.605Z,7.50
2022-11-29T05:35:16.333Z,7.53
2022-11-29T05:36:18.907Z,7.52
2022-11-29T05:37:05.358Z,7.50
2022-11-29T05:38:02.192Z,7.48
2022-11-29T05:39:08.741Z,7.48
2022-11-29T05:39:55.460Z,7.47
2022-11-29T05:41:05.631Z,7.47
2022-11-29T05:42:28.948Z,7.48
2022-11-29T05:43:36.737Z,7.48
2022-11-29T05:44:42.027Z,7.47
2022-11-29T05:45:46.615Z,7.47
2022-11-29T05:46:54.199Z,7.49
2022-11-29T05:48:21.896Z,7.49
2022-11-29T05:49:25.209Z,7.47
2022-11-29T05:50:32.483Z,7.45
2022-11-29T05:51:29.174Z,7.46
2022-11-29T05:52:33.301Z,7.46
2022-11-29T05:53:55.167Z,7.44
2022-11-29T05:55:06.067Z,7.46
2022-11-29T05:56:02.509Z,7.45
2022-11-29T05:57:06.440Z,7.45
2022-11-29T05:58:31.507Z,7.46
2022-11-29T05:59:28.517Z,7.48
2022-11-29T06:00:19.008Z,7.46
2022-11-29T06:01:33.862Z,7.46
2022-11-29T06:02:31.651Z,7.47
2022-11-29T06:03:56.607Z,7.46
2022-11-29T06:05:04.702Z,7.45
2022-11-29T06:06:01.252Z,7.46
2022-11-29T06:07:15.011Z,7.45
2022-11-29T06:08:13.416Z,7.45
2022-11-29T06:09:13.962Z,7.48
2022-11-29T06:10:11.552Z,7.46
2022-11-29T06:11:12.046Z,7.47
2022-11-29T06:12:23.046Z,7.47
2022-11-29T06:13:38.347Z,7.47
2022-11-29T06:14:49.303Z,7.49
2022-11-29T06:16:06.271Z,7.51
2022-11-29T06:17:18.825Z,7.51
2022-11-29T06:18:34.319Z,7.50
2022-11-29T06:19:42.485Z,7.55
2022-11-29T06:20:48.426Z,7.52
2022-11-29T06:21:52.503Z,7.50
2022-11-29T06:23:25.464Z,7.49
2022-11-29T06:24:30.015Z,7.49
2022-11-29T06:25:26.704Z,7.51
2022-11-29T06:26:58.224Z,7.52
2022-11-29T06:28:10.463Z,7.54
2022-11-29T06:29:15.319Z,7.51
2022-11-29T06:30:09.140Z,7.50
2022-11-29T06:31:48.230Z,7.52
2022-11-29T06:32:56.301Z,7.48
2022-11-29T06:33:59.100Z,7.49
2022-11-29T06:35:05.117Z,7.49
2022-11-29T06:36:15.883Z,7.49
2022-11-29T06:37:16.890Z,7.47
2022-11-29T06:38:23.243Z,7.47
2022-11-29T06:39:12.300Z,7.47
2022-11-29T06:40:00.184Z,7.46
2022-11-29T06:40:48.692Z,7.51
2022-11-29T06:41:35.684Z,7.48
2022-11-29T06:42:22.454Z,7.48
2022-11-29T06:43:09.732Z,7.54
2022-11-29T06:43:57.123Z,7.48
2022-11-29T06:44:44.353Z,7.47
2022-11-29T06:45:31.631Z,7.47
2022-11-29T06:46:45.549Z,7.48
2022-11-29T06:48:01.776Z,7.48
2022-11-29T06:49:03.917Z,7.46
2022-11-29T06:50:10.506Z,7.44
2022-11-29T06:51:21.983Z,7.48
2022-11-29T06:52:22.754Z,7.51
2022-11-29T06:53:19.765Z,7.51
2022-11-29T06:54:14.637Z,7.54
2022-11-29T06:55:36.518Z,7.53
2022-11-29T06:56:29.231Z,7.51
2022-11-29T06:57:37.248Z,7.51
2022-11-29T06:58:42.135Z,7.50
2022-11-29T07:00:08.851Z,7.50
2022-11-29T07:01:41.758Z,7.50
2022-11-29T07:02:45.140Z,7.49
2022-11-29T07:03:51.982Z,7.51
2022-11-29T07:05:29.256Z,7.50
2022-11-29T07:06:23.733Z,7.50
2022-11-29T07:07:20.845Z,7.50
2022-11-29T07:08:26.238Z,7.52
2022-11-29T07:09:17.001Z,7.54
2022-11-29T07:10:08.300Z,7.52
2022-11-29T07:10:59.823Z,7.52
2022-11-29T07:11:47.751Z,7.55
2022-11-29T07:12:34.782Z,7.55
2022-11-29T07:13:22.417Z,7.56
2022-11-29T07:14:10.158Z,7.55
2022-11-29T07:14:58.044Z,7.55
2022-11-29T07:16:00.016Z,7.55
2022-11-29T07:17:02.233Z,7.58
2022-11-29T07:18:15.065Z,7.61
2022-11-29T07:19:07.743Z,7.61
2022-11-29T07:20:26.187Z,7.61
2022-11-29T07:21:39.492Z,7.62
2022-11-29T07:22:59.603Z,7.64
2022-11-29T07:24:04.622Z,7.61
2022-11-29T07:25:01.882Z,7.60
2022-11-29T07:26:10.261Z,7.60
2022-11-29T07:27:11.448Z,7.62
2022-11-29T07:28:29.006Z,7.61
2022-11-29T07:29:45.654Z,7.62
2022-11-29T07:30:50.978Z,7.67
2022-11-29T07:32:06.060Z,7.72
2022-11-29T07:33:05.821Z,7.70
2022-11-29T07:34:29.206Z,7.69
2022-11-29T07:35:29.295Z,7.68
2022-11-29T07:36:35.849Z,7.66
2022-11-29T07:37:40.921Z,7.66
2022-11-29T07:39:04.735Z,7.65
2022-11-29T07:40:14.199Z,7.66
2022-11-29T07:41:15.518Z,7.62
2022-11-29T07:42:44.879Z,7.64
2022-11-29T07:43:49.991Z,7.65
2022-11-29T07:44:47.489Z,7.63
2022-11-29T07:45:38.369Z,7.61
2022-11-29T07:46:25.753Z,7.59
2022-11-29T07:47:15.660Z,7.59
2022-11-29T07:48:04.063Z,7.67
2022-11-29T07:48:51.414Z,7.65
2022-11-29T07:49:39.218Z,7.66
2022-11-29T07:50:28.685Z,7.65
2022-11-29T07:51:15.572Z,7.65
2022-11-29T07:52:02.435Z,7.61
2022-11-29T07:52:50.008Z,7.61
2022-11-29T07:53:42.964Z,7.69
2022-11-29T07:54:30.349Z,7.66
2022-11-29T07:55:20.488Z,7.65
2022-11-29T07:56:07.301Z,7.67
2022-11-29T07:56:54.076Z,7.65
2022-11-29T07:57:40.595Z,7.64
2022-11-29T07:58:27.207Z,7.67
2022-11-29T07:59:16.741Z,7.66
2022-11-29T08:00:05.004Z,7.63
2022-11-29T08:00:58.215Z,7.69
2022-11-29T08:01:48.038Z,7.68
2022-11-29T08:02:34.944Z,7.68
2022-11-29T08:03:21.683Z,7.71
2022-11-29T08:04:09.738Z,7.75
2022-11-29T08:04:56.631Z,7.75
2022-11-29T08:05:47.195Z,7.70
2022-11-29T08:06:34.247Z,7.70
2022-11-29T08:07:21.187Z,7.69
2022-11-29T08:08:08.468Z,7.68
2022-11-29T08:08:58.364Z,7.67
2022-11-29T08:09:55.808Z,7.67
2022-11-29T08:10:47.973Z,7.68
2022-11-29T08:11:43.246Z,7.68
2022-11-29T08:12:38.210Z,7.69
2022-11-29T08:13:30.594Z,7.72
2022-11-29T08:14:21.784Z,7.71
2022-11-29T08:15:15.533Z,7.71
2022-11-29T08:16:16.685Z,7.70
2022-11-29T08:17:06.460Z,7.71
2022-11-29T08:17:56.487Z,7.73
2022-11-29T08:18:43.697Z,7.73
2022-11-29T08:19:30.718Z,7.72
2022-11-29T08:20:17.590Z,7.73
2022-11-29T08:21:07.862Z,7.74
2022-11-29T08:21:57.795Z,7.73
2022-11-29T08:22:44.854Z,7.75
2022-11-29T08:23:31.852Z,7.73
2022-11-29T08:24:19.070Z,7.72
2022-11-29T08:25:08.005Z,7.74
2022-11-29T08:26:00.008Z,7.75
2022-11-29T08:26:47.138Z,7.82
2022-11-29T08:27:37.747Z,7.78
2022-11-29T08:28:24.421Z,7.75
2022-11-29T08:29:11.266Z,7.76
2022-11-29T08:29:57.876Z,7.76
2022-11-29T08:30:47.232Z,7.76
2022-11-29T08:31:34.174Z,7.75
2022-11-29T08:32:20.948Z,7.76
2022-11-29T08:33:08.262Z,7.74
2022-11-29T08:33:54.804Z,7.76
2022-11-29T08:34:41.351Z,7.79
2022-11-29T08:35:28.259Z,7.80
2022-11-29T08:36:19.237Z,7.81
2022-11-29T08:37:05.992Z,7.83
2022-11-29T08:37:54.668Z,7.83
2022-11-29T08:38:41.253Z,7.83
2022-11-29T08:39:29.055Z,7.88
2022-11-29T08:40:17.366Z,7.87
2022-11-29T08:41:10.762Z,7.88
2022-11-29T08:41:57.362Z,7.86
2022-11-29T08:42:44.147Z,7.91
2022-11-29T08:43:31.145Z,7.92
2022-11-29T08:44:18.164Z,7.91
2022-11-29T08:45:06.245Z,7.95
2022-11-29T08:45:52.831Z,7.94
2022-11-29T08:46:58.060Z,7.95
2022-11-29T08:47:44.758Z,7.98
2022-11-29T08:48:33.069Z,7.98
2022-11-29T08:49:19.731Z,7.98
2022-11-29T08:50:24.576Z,8.03
2022-11-29T08:51:11.241Z,8.02
2022-11-29T08:52:17.403Z,8.02
2022-11-29T08:53:22.413Z,7.99
2022-11-29T08:54:09.105Z,7.99
2022-11-29T08:54:58.929Z,7.98
2022-11-29T08:55:50.441Z,8.01
2022-11-29T08:57:46.941Z,8.09
2022-11-29T08:58:33.776Z,8.10
2022-11-29T08:59:20.298Z,8.12
2022-11-29T09:00:07.859Z,8.14
2022-11-29T09:01:12.983Z,8.17
2022-11-29T09:01:59.526Z,8.13
2022-11-29T09:02:46.346Z,8.12
2022-11-29T09:03:52.381Z,8.16
2022-11-29T09:04:38.908Z,8.22
2022-11-29T09:05:26.802Z,8.22
2022-11-29T09:06:15.908Z,8.24
2022-11-29T09:07:02.617Z,8.26
2022-11-29T09:07:50.505Z,8.24
2022-11-29T09:08:37.376Z,8.24
2022-11-29T09:09:24.082Z,8.22
2022-11-29T09:10:12.081Z,8.23
2022-11-29T09:10:58.786Z,8.22
2022-11-29T09:11:49.233Z,8.20
2022-11-29T09:12:37.208Z,8.20
2022-11-29T09:13:24.258Z,8.19
2022-11-29T09:14:15.794Z,8.21
2022-11-29T09:15:05.676Z,8.23
2022-11-29T09:15:53.701Z,8.25
2022-11-29T09:16:40.968Z,8.27
2022-11-29T09:17:30.675Z,8.29
2022-11-29T09:18:17.516Z,8.26
2022-11-29T09:19:07.462Z,8.31
2022-11-29T09:19:56.506Z,8.32
2022-11-29T09:20:44.638Z,8.32
2022-11-29T09:21:34.041Z,8.30
2022-11-29T09:22:21.675Z,8.28
2022-11-29T09:23:08.249Z,8.30
2022-11-29T09:23:59.052Z,8.35
2022-11-29T09:24:48.291Z,8.35
2022-11-29T09:25:35.187Z,8.36
2022-11-29T09:26:24.065Z,8.38
2022-11-29T09:27:11.068Z,8.34
2022-11-29T09:28:01.993Z,8.33
2022-11-29T09:28:49.455Z,8.34
2022-11-29T09:29:36.347Z,8.36
2022-11-29T09:30:23.948Z,8.39
2022-11-29T09:31:18.105Z,8.39
2022-11-29T09:32:05.100Z,8.38
2022-11-29T09:32:51.709Z,8.39
2022-11-29T09:33:42.550Z,8.36
2022-11-29T09:34:29.129Z,8.37
2022-11-29T09:35:15.855Z,8.37
2022-11-29T09:36:03.832Z,8.37
2022-11-29T09:36:51.141Z,8.40
2022-11-29T09:37:38.009Z,8.40
2022-11-29T09:38:26.746Z,8.46
2022-11-29T09:39:17.698Z,8.49
2022-11-29T09:40:05.581Z,8.47
2022-11-29T09:41:01.158Z,8.50
2022-11-29T09:42:44.609Z,8.47
2022-11-29T09:44:01.842Z,8.46
2022-11-29T09:44:55.524Z,8.43
2022-11-29T09:45:49.383Z,8.46
2022-11-29T09:46:44.369Z,8.48
2022-11-29T09:47:45.974Z,8.49
2022-11-29T09:48:32.372Z,8.48
2022-11-29T09:49:37.550Z,8.49
2022-11-29T09:50:34.661Z,8.51
2022-11-29T09:51:56.863Z,8.55
2022-11-29T09:53:10.549Z,8.58
2022-11-29T09:53:57.099Z,8.59
2022-11-29T09:54:55.659Z,8.60
2022-11-29T09:56:07.061Z,8.55
2022-11-29T09:56:57.214Z,8.55
2022-11-29T09:57:46.724Z,8.56
2022-11-29T09:58:43.633Z,8.55
2022-11-29T09:59:43.454Z,8.56
2022-11-29T10:00:35.536Z,8.59
2022-11-29T10:01:31.323Z,8.59
2022-11-29T10:02:36.248Z,8.56
2022-11-29T10:03:31.905Z,8.54
2022-11-29T10:04:25.463Z,8.51
2022-11-29T10:05:22.080Z,8.56
2022-11-29T10:06:23.207Z,8.52
2022-11-29T10:07:26.426Z,8.55
2022-11-29T10:08:19.855Z,8.56
2022-11-29T10:09:33.563Z,8.59
2022-11-29T10:10:26.573Z,8.56
2022-11-29T10:11:20.218Z,8.58
2022-11-29T10:12:22.085Z,8.57
2022-11-29T10:13:31.485Z,8.59
2022-11-29T10:14:34.299Z,8.60
2022-11-29T10:15:29.378Z,8.62
2022-11-29T10:16:37.198Z,8.59
2022-11-29T10:17:54.003Z,8.62
2022-11-29T10:18:49.699Z,8.63
2022-11-29T10:19:43.045Z,8.65
2022-11-29T10:20:39.713Z,8.67
2022-11-29T10:21:36.521Z,8.67
2022-11-29T10:22:30.499Z,8.66
2022-11-29T10:23:25.530Z,8.63
2022-11-29T10:24:18.315Z,8.62
2022-11-29T10:25:10.452Z,8.57
2022-11-29T10:25:58.572Z,8.60
2022-11-29T10:26:45.792Z,8.57
2022-11-29T10:27:32.450Z,8.59
2022-11-29T10:28:22.388Z,8.55
2022-11-29T10:29:15.408Z,8.55
2022-11-29T10:30:02.659Z,8.53
2022-11-29T10:30:55.508Z,8.53
2022-11-29T10:31:49.560Z,8.56
2022-11-29T10:32:36.139Z,8.56
2022-11-29T10:33:30.121Z,8.55
2022-11-29T10:34:21.575Z,8.54
2022-11-29T10:35:17.894Z,8.54
2022-11-29T10:36:24.884Z,8.51
2022-11-29T10:37:17.674Z,8.52
2022-11-29T10:38:29.874Z,8.52
2022-11-29T10:39:42.301Z,8.50
2022-11-29T10:40:38.077Z,8.55
2022-11-29T10:41:25.835Z,8.50
2022-11-29T10:42:38.118Z,8.49
2022-11-29T10:43:26.330Z,8.49
2022-11-29T10:44:15.377Z,8.51
2022-11-29T10:45:04.386Z,8.46
2022-11-29T10:45:56.168Z,8.45
2022-11-29T10:46:43.314Z,8.45
2022-11-29T10:47:30.784Z,8.46
2022-11-29T10:48:21.168Z,8.44
2022-11-29T10:49:18.713Z,8.45
2022-11-29T10:50:05.923Z,8.35
2022-11-29T10:50:53.636Z,8.32
2022-11-29T10:51:40.409Z,8.32
2022-11-29T10:52:27.016Z,8.31
2022-11-29T10:53:17.310Z,8.29
2022-11-29T10:54:18.251Z,8.32
2022-11-29T10:55:05.551Z,8.31
2022-11-29T10:56:01.246Z,8.31
2022-11-29T10:56:48.540Z,8.31
2022-11-29T10:57:36.489Z,8.26
2022-11-29T10:58:28.477Z,8.26
2022-11-29T10:59:33.109Z,8.25
2022-11-29T11:00:20.119Z,8.24
2022-11-29T11:01:08.804Z,8.25
2022-11-29T11:01:56.475Z,8.22
2022-11-29T11:02:43.002Z,8.22
2022-11-29T11:03:38.302Z,8.26
2022-11-29T11:04:35.579Z,8.29
2022-11-29T11:05:26.733Z,8.29
2022-11-29T11:06:27.190Z,8.28
2022-11-29T11:07:29.326Z,8.28
2022-11-29T11:08:18.425Z,8.28
2022-11-29T11:09:34.155Z,8.30
2022-11-29T11:10:28.778Z,8.32
2022-11-29T11:11:26.957Z,8.36
2022-11-29T11:12:16.110Z,8.37
2022-11-29T11:13:11.804Z,8.34
2022-11-29T11:14:06.063Z,8.37
2022-11-29T11:15:16.812Z,8.37
2022-11-29T11:16:20.328Z,8.38
2022-11-29T11:17:32.487Z,8.35
2022-11-29T11:18:22.850Z,8.38
2022-11-29T11:19:28.576Z,8.41
2022-11-29T11:20:24.442Z,8.40
2022-11-29T11:21:14.187Z,8.36
2022-11-29T11:22:04.292Z,8.29
2022-11-29T11:23:00.795Z,8.30
2022-11-29T11:24:02.869Z,8.32
2022-11-29T11:25:05.596Z,8.34
2022-11-29T11:26:02.069Z,8.36
2022-11-29T11:26:48.716Z,8.38
2022-11-29T11:27:41.103Z,8.38
2022-11-29T11:28:34.506Z,8.40
2022-11-29T11:29:29.523Z,8.38
2022-11-29T11:30:28.824Z,8.35
2022-11-29T11:31:25.665Z,8.33
2022-11-29T11:32:19.326Z,8.36
2022-11-29T11:33:25.021Z,8.38
2022-11-29T11:34:34.315Z,8.39
2022-11-29T11:35:24.006Z,8.39
2022-11-29T11:36:19.815Z,8.39
2022-11-29T11:37:23.423Z,8.32
2022-11-29T11:38:17.499Z,8.31
2022-11-29T11:39:20.380Z,8.29
2022-11-29T11:40:28.798Z,8.32
2022-11-29T11:41:23.551Z,8.36
2022-11-29T11:42:34.004Z,8.38
2022-11-29T11:43:21.838Z,8.39
2022-11-29T11:44:53.618Z,8.38
2022-11-29T11:45:41.399Z,8.41
2022-11-29T11:46:53.492Z,8.41
2022-11-29T11:47:55.252Z,8.40
2022-11-29T11:48:42.470Z,8.37
2022-11-29T11:49:48.112Z,8.39
2022-11-29T11:50:57.654Z,8.37
2022-11-29T11:51:44.937Z,8.40
2022-11-29T11:52:50.680Z,8.43
2022-11-29T11:53:38.570Z,8.46
2022-11-29T11:54:27.949Z,8.48
2022-11-29T11:55:55.663Z,8.51
2022-11-29T11:56:45.582Z,8.50
2022-11-29T11:57:32.461Z,8.41
2022-11-29T11:58:23.762Z,8.40
2022-11-29T11:59:21.230Z,8.42
2022-11-29T12:01:02.981Z,8.42
2022-11-29T12:01:48.254Z,8.41
2022-11-29T12:02:40.574Z,8.40
2022-11-29T12:03:49.726Z,8.43
2022-11-29T12:04:38.232Z,8.43
2022-11-29T12:05:25.275Z,8.44
2022-11-29T12:06:28.847Z,8.50
2022-11-29T12:07:59.287Z,8.53
2022-11-29T12:08:36.721Z,8.49
2022-11-29T12:09:37.527Z,8.49
2022-11-29T12:10:28.876Z,8.48
2022-11-29T12:11:18.768Z,8.51
2022-11-29T12:12:11.470Z,8.54
2022-11-29T12:13:00.881Z,8.51
2022-11-29T12:14:00.019Z,8.43
2022-11-29T12:15:01.031Z,8.47
2022-11-29T12:15:51.622Z,8.50
2022-11-29T12:16:40.521Z,8.46
2022-11-29T12:17:49.132Z,8.43
2022-11-29T12:18:46.420Z,8.38
2022-11-29T12:19:44.087Z,8.33
2022-11-29T12:20:42.540Z,8.34
2022-11-29T12:21:37.747Z,8.35
2022-11-29T12:22:31.263Z,8.38
2022-11-29T12:23:31.313Z,8.40
2022-11-29T12:24:29.161Z,8.45
2022-11-29T12:25:26.081Z,8.43
2022-11-29T12:26:48.964Z,8.43
2022-11-29T12:27:26.147Z,8.46
2022-11-29T12:28:20.687Z,8.51
2022-11-29T12:29:15.507Z,8.50
2022-11-29T12:30:02.409Z,8.46
2022-11-29T12:31:15.048Z,8.50
2022-11-29T12:32:10.735Z,8.55
2022-11-29T12:33:30.632Z,8.56
2022-11-29T12:34:26.201Z,8.53
2022-11-29T12:35:40.153Z,8.51
2022-11-29T12:36:56.268Z,8.53
2022-11-29T12:38:01.670Z,8.54
2022-11-29T12:39:25.515Z,8.59
2022-11-29T12:40:29.158Z,8.58
2022-11-29T12:41:36.946Z,8.63
2022-11-29T12:42:39.634Z,8.63
2022-11-29T12:44:05.422Z,8.63
2022-11-29T12:44:58.686Z,8.63
2022-11-29T12:46:01.508Z,8.66
2022-11-29T12:47:28.207Z,8.65
2022-11-29T12:48:32.559Z,8.69
2022-11-29T12:49:43.446Z,8.68
2022-11-29T12:50:29.927Z,8.64
2022-11-29T12:51:40.666Z,8.61
2022-11-29T12:52:44.846Z,8.61
2022-11-29T12:54:08.562Z,8.59
2022-11-29T12:55:19.524Z,8.56
2022-11-29T12:56:18.931Z,8.54
2022-11-29T12:57:08.279Z,8.53